Time;durP1;ratioP1;P1;durP2;ratioP2;P2;SDS_P1;SDS_P2;PMS_P1;PMS_P2;Temp;Humidity;BMP_temperature;BMP_pressure;BME280_temperature;BME280_humidity;BME280_pressure;Samples;Min_cycle;Max_cycle;Signal;HPM_P1;HPM_P2
2023/06/11 00:01:58;;;;;;;3.80;2.60;;;20.30;99.90;;;;;;4980293;28;20394;-73
2023/06/11 00:04:25;;;;;;;3.97;2.80;;;20.30;99.90;;;;;;4999238;28;20014;-73
2023/06/11 00:06:56;;;;;;;5.57;2.67;;;20.20;99.90;;;;;;4997502;28;20030;-74
2023/06/11 00:09:25;;;;;;;3.47;2.50;;;20.10;99.90;;;;;;4991549;28;20109;-74
2023/06/11 00:11:53;;;;;;;11.48;3.40;;;20.00;99.90;;;;;;4997515;28;20061;-74
2023/06/11 00:14:23;;;;;;;5.00;2.92;;;19.90;99.90;;;;;;4997287;28;20483;-74
2023/06/11 00:16:49;;;;;;;3.85;2.95;;;19.90;99.90;;;;;;4997499;28;20026;-73
2023/06/11 00:19:17;;;;;;;3.55;2.63;;;19.80;99.90;;;;;;4979669;28;20042;-74
2023/06/11 00:21:43;;;;;;;5.72;2.67;;;19.80;99.90;;;;;;4997360;28;20031;-73
2023/06/11 00:24:15;;;;;;;4.07;2.72;;;19.70;99.90;;;;;;4979922;28;20030;-74
2023/06/11 00:26:42;;;;;;;3.65;2.60;;;19.70;99.90;;;;;;4996716;28;20483;-73
2023/06/11 00:29:08;;;;;;;3.65;2.72;;;19.60;99.90;;;;;;4997458;28;20053;-73
2023/06/11 00:31:34;;;;;;;6.90;2.63;;;19.60;99.90;;;;;;4997465;28;20118;-74
2023/06/11 00:34:00;;;;;;;3.72;2.65;;;19.40;99.90;;;;;;4997282;28;20038;-74
2023/06/11 00:36:27;;;;;;;5.53;3.00;;;19.40;99.90;;;;;;4997089;28;20022;-74
2023/06/11 00:38:54;;;;;;;3.85;2.42;;;19.30;99.90;;;;;;4997625;28;20023;-73
2023/06/11 00:41:29;;;;;;;5.45;2.53;;;19.30;99.90;;;;;;4996964;28;20105;-74
2023/06/11 00:43:55;;;;;;;2.35;1.98;;;19.20;99.90;;;;;;4997350;28;20062;-74
2023/06/11 00:46:21;;;;;;;2.00;1.60;;;19.40;99.90;;;;;;4993932;28;20046;-73
2023/06/11 00:48:48;;;;;;;2.78;1.95;;;19.50;99.90;;;;;;4979617;28;20515;-75
2023/06/11 00:51:17;;;;;;;2.33;2.08;;;19.50;99.90;;;;;;4979360;28;20030;-74
2023/06/11 00:53:42;;;;;;;3.25;2.33;;;19.60;99.90;;;;;;4979747;28;20022;-74
2023/06/11 00:56:08;;;;;;;2.95;2.20;;;19.70;99.90;;;;;;4979317;28;20027;-74
2023/06/11 00:58:34;;;;;;;3.75;2.45;;;19.70;99.90;;;;;;4997224;28;20049;-74
2023/06/11 01:01:05;;;;;;;2.97;2.38;;;19.80;99.90;;;;;;4996857;28;20025;-74
2023/06/11 01:03:33;;;;;;;3.88;2.33;;;19.70;99.90;;;;;;4979734;28;20495;-74
2023/06/11 01:06:06;;;;;;;7.95;2.92;;;19.70;99.90;;;;;;4998170;28;20526;-73
2023/06/11 01:08:35;;;;;;;3.10;2.15;;;19.70;99.90;;;;;;4997063;28;20436;-74
2023/06/11 01:11:01;;;;;;;4.03;2.35;;;19.70;99.90;;;;;;4979542;28;20029;-74
2023/06/11 01:13:27;;;;;;;3.75;2.47;;;19.70;99.90;;;;;;4979356;28;20446;-74
2023/06/11 01:16:02;;;;;;;3.85;3.30;;;19.60;99.90;;;;;;4997301;28;20113;-74
2023/06/11 01:18:38;;;;;;;2.40;2.05;;;19.60;99.90;;;;;;4982999;28;20719;-74
2023/06/11 01:21:13;;;;;;;4.07;2.20;;;19.60;99.90;;;;;;5000674;28;20026;-75
2023/06/11 01:23:46;;;;;;;5.43;3.33;;;19.60;99.90;;;;;;5000337;28;20085;-74
2023/06/11 01:26:27;;;;;;;2.60;2.28;;;19.60;99.90;;;;;;5000497;28;20023;-74
2023/06/11 01:28:56;;;;;;;2.97;2.22;;;19.60;99.90;;;;;;5000377;28;20502;-74
2023/06/11 01:31:23;;;;;;;2.33;1.95;;;19.50;99.90;;;;;;5000460;28;20026;-74
2023/06/11 01:33:48;;;;;;;2.70;1.90;;;19.50;99.90;;;;;;4999976;28;20498;-74
2023/06/11 01:36:14;;;;;;;3.42;2.20;;;19.40;99.90;;;;;;5000468;28;20368;-73
2023/06/11 01:38:44;;;;;;;2.92;2.10;;;19.40;99.90;;;;;;4979368;28;20027;-74
2023/06/11 01:41:14;;;;;;;5.25;2.40;;;19.30;99.90;;;;;;4996227;28;20045;-74
2023/06/11 01:43:40;;;;;;;4.45;2.15;;;19.30;99.90;;;;;;5000410;28;20030;-74
2023/06/11 01:46:06;;;;;;;3.92;1.70;;;19.20;99.90;;;;;;5000016;28;20435;-74
2023/06/11 01:48:32;;;;;;;2.83;2.20;;;19.20;99.90;;;;;;5000391;28;20033;-74
2023/06/11 01:50:58;;;;;;;4.72;2.20;;;19.20;99.90;;;;;;4999664;28;20022;-74
2023/06/11 01:53:24;;;;;;;6.45;2.45;;;19.20;99.90;;;;;;5000224;28;20029;-73
2023/06/11 01:55:50;;;;;;;4.28;2.28;;;19.20;99.90;;;;;;4999516;28;20031;-73
2023/06/11 01:58:18;;;;;;;5.90;2.50;;;19.20;99.90;;;;;;4999787;28;20121;-73
2023/06/11 02:00:44;;;;;;;2.55;1.67;;;19.20;99.90;;;;;;4999626;28;20101;-73
2023/06/11 02:03:11;;;;;;;5.63;2.20;;;19.20;99.90;;;;;;4999920;28;20057;-74
2023/06/11 02:05:36;;;;;;;3.65;2.13;;;19.10;99.90;;;;;;4999283;28;20110;-74
2023/06/11 02:08:02;;;;;;;3.05;2.00;;;19.10;99.90;;;;;;4999872;28;20061;-74
2023/06/11 02:10:28;;;;;;;5.32;1.98;;;19.20;99.90;;;;;;4999178;28;20061;-75
2023/06/11 02:12:53;;;;;;;5.80;2.75;;;19.20;99.90;;;;;;4982238;28;20025;-75
2023/06/11 02:15:20;;;;;;;3.20;2.10;;;19.20;99.90;;;;;;4981725;28;20041;-74
2023/06/11 02:17:46;;;;;;;2.75;1.67;;;19.30;99.90;;;;;;4999646;28;20036;-74
2023/06/11 02:20:12;;;;;;;2.50;2.10;;;19.30;99.90;;;;;;4999030;28;20401;-74
2023/06/11 02:22:37;;;;;;;2.70;1.77;;;19.30;99.90;;;;;;4999747;28;20033;-74
2023/06/11 02:25:04;;;;;;;4.35;2.13;;;19.30;99.90;;;;;;4999071;28;20041;-74
2023/06/11 02:27:30;;;;;;;3.17;2.05;;;19.20;99.90;;;;;;4998067;28;20026;-74
2023/06/11 02:29:56;;;;;;;2.67;1.92;;;19.20;99.90;;;;;;4980495;28;20570;-74
2023/06/11 02:32:22;;;;;;;4.00;2.30;;;19.20;99.90;;;;;;4999352;28;20018;-74
2023/06/11 02:34:48;;;;;;;3.10;2.35;;;19.10;99.90;;;;;;4998886;28;20026;-74
2023/06/11 02:37:13;;;;;;;5.78;2.03;;;19.10;99.90;;;;;;4999400;28;20541;-74
2023/06/11 02:39:39;;;;;;;4.10;1.90;;;19.00;99.90;;;;;;4998959;28;20058;-74
2023/06/11 02:42:05;;;;;;;3.33;2.00;;;19.00;99.90;;;;;;4999047;28;20018;-74
2023/06/11 02:44:31;;;;;;;3.25;2.03;;;19.00;99.90;;;;;;4981339;28;20057;-74
2023/06/11 02:46:57;;;;;;;4.60;2.17;;;19.00;99.90;;;;;;4999176;28;20072;-74
2023/06/11 02:49:22;;;;;;;4.03;2.55;;;19.00;99.90;;;;;;4998649;28;20050;-74
2023/06/11 02:51:48;;;;;;;3.55;1.98;;;18.90;99.90;;;;;;4999132;28;20108;-74
2023/06/11 02:54:14;;;;;;;4.20;2.42;;;19.00;99.90;;;;;;4998791;28;20470;-74
2023/06/11 02:56:39;;;;;;;5.70;2.08;;;19.00;99.90;;;;;;4985266;28;20084;-74
2023/06/11 02:59:05;;;;;;;3.38;2.05;;;18.90;99.90;;;;;;5000935;28;20032;-74
2023/06/11 03:01:31;;;;;;;4.43;2.00;;;18.90;99.90;;;;;;5018141;28;20482;-74
2023/06/11 03:03:56;;;;;;;3.88;2.30;;;18.90;99.90;;;;;;5020961;28;20397;-75
2023/06/11 03:06:22;;;;;;;4.60;2.13;;;18.90;99.90;;;;;;5017403;28;20014;-75
2023/06/11 03:08:48;;;;;;;3.15;2.00;;;18.90;99.90;;;;;;5017533;28;20061;-74
2023/06/11 03:11:14;;;;;;;2.47;1.88;;;19.00;99.90;;;;;;5018019;28;20030;-74
2023/06/11 03:13:40;;;;;;;3.33;2.20;;;18.90;99.90;;;;;;5017860;28;20101;-75
2023/06/11 03:16:06;;;;;;;4.00;2.50;;;18.90;99.90;;;;;;5000459;28;20466;-74
2023/06/11 03:18:31;;;;;;;2.10;1.88;;;18.90;99.90;;;;;;5017874;28;20030;-74
2023/06/11 03:20:57;;;;;;;2.83;1.92;;;18.90;99.90;;;;;;5018334;28;20045;-74
2023/06/11 03:23:23;;;;;;;3.17;2.40;;;18.90;99.90;;;;;;5017847;28;20029;-74
2023/06/11 03:25:48;;;;;;;4.78;2.30;;;18.90;99.90;;;;;;5017931;28;20021;-74
2023/06/11 03:28:14;;;;;;;6.38;2.22;;;18.90;99.90;;;;;;5017845;28;20402;-74
2023/06/11 03:30:39;;;;;;;3.50;2.60;;;18.80;99.90;;;;;;5018016;28;20556;-75
2023/06/11 03:33:05;;;;;;;4.70;2.42;;;18.80;99.90;;;;;;5000296;28;20040;-75
2023/06/11 03:35:31;;;;;;;3.97;2.35;;;18.80;99.90;;;;;;5017481;28;20398;-75
2023/06/11 03:37:56;;;;;;;3.83;2.63;;;18.80;99.90;;;;;;5017585;28;20478;-74
2023/06/11 03:40:22;;;;;;;4.90;2.85;;;18.80;99.90;;;;;;4999225;28;20028;-74
2023/06/11 03:42:48;;;;;;;2.83;2.15;;;18.80;99.90;;;;;;5017461;28;20033;-74
2023/06/11 03:45:13;;;;;;;3.28;2.63;;;18.70;99.90;;;;;;4996584;28;20087;-74
2023/06/11 03:47:39;;;;;;;2.70;2.00;;;18.60;99.90;;;;;;5014181;28;20030;-74
2023/06/11 03:50:06;;;;;;;3.60;2.65;;;18.60;99.90;;;;;;4996209;28;20029;-75
2023/06/11 03:52:31;;;;;;;2.72;2.25;;;18.60;99.90;;;;;;5014267;28;20032;-74
2023/06/11 03:54:57;;;;;;;5.18;2.53;;;18.50;99.90;;;;;;5017110;28;20026;-74
2023/06/11 03:57:23;;;;;;;3.92;2.67;;;18.50;99.90;;;;;;5006898;28;20073;-74
2023/06/11 03:59:48;;;;;;;3.25;2.20;;;18.40;99.90;;;;;;4997566;28;20017;-74
2023/06/11 04:02:14;;;;;;;3.47;2.45;;;18.40;99.90;;;;;;4997658;28;20054;-74
2023/06/11 04:04:40;;;;;;;3.95;3.25;;;18.40;99.90;;;;;;5001406;28;20023;-74
2023/06/11 04:07:05;;;;;;;2.70;2.22;;;18.40;99.90;;;;;;4980153;28;20031;-75
2023/06/11 04:09:31;;;;;;;5.05;2.75;;;18.40;99.90;;;;;;4997471;28;20053;-75
2023/06/11 04:11:57;;;;;;;4.90;3.42;;;18.40;99.90;;;;;;4997564;28;20109;-74
2023/06/11 04:14:23;;;;;;;3.70;2.75;;;18.40;99.90;;;;;;4997451;28;20050;-75
2023/06/11 04:16:49;;;;;;;3.50;2.78;;;18.30;99.90;;;;;;4997502;28;20054;-74
2023/06/11 04:19:15;;;;;;;4.20;2.70;;;18.30;99.90;;;;;;4976473;28;20041;-74
2023/06/11 04:21:41;;;;;;;4.65;2.72;;;18.30;99.90;;;;;;4994309;28;20023;-74
2023/06/11 04:24:07;;;;;;;4.25;2.42;;;18.30;99.90;;;;;;4997333;28;20065;-74
2023/06/11 04:26:32;;;;;;;4.18;2.67;;;18.30;99.90;;;;;;4997184;28;20138;-75
2023/06/11 04:28:59;;;;;;;5.75;2.65;;;18.30;99.90;;;;;;4980161;28;20082;-74
2023/06/11 04:31:26;;;;;;;3.80;2.70;;;18.30;99.90;;;;;;4976616;28;20030;-74
2023/06/11 04:34:06;;;;;;;3.05;2.47;;;18.30;99.90;;;;;;4979596;28;20428;-74
2023/06/11 04:36:32;;;;;;;4.82;2.65;;;18.30;99.90;;;;;;4997207;28;20026;-75
2023/06/11 04:39:01;;;;;;;3.53;2.38;;;18.30;99.90;;;;;;4997440;28;20026;-75
2023/06/11 04:41:29;;;;;;;3.35;2.65;;;18.30;99.90;;;;;;4996886;28;20027;-74
2023/06/11 04:43:55;;;;;;;5.32;2.90;;;18.30;99.90;;;;;;4979604;28;20015;-74
2023/06/11 04:46:21;;;;;;;3.92;2.60;;;18.30;99.90;;;;;;4997108;28;20109;-74
2023/06/11 04:48:50;;;;;;;4.43;2.90;;;18.30;99.90;;;;;;4979942;28;20045;-74
2023/06/11 04:51:16;;;;;;;3.33;2.70;;;18.30;99.90;;;;;;4982029;28;20027;-74
2023/06/11 04:53:43;;;;;;;3.45;2.60;;;18.30;99.90;;;;;;5001045;28;20046;-75
2023/06/11 04:56:08;;;;;;;3.65;2.38;;;18.40;99.90;;;;;;4983222;28;20486;-74
2023/06/11 04:58:34;;;;;;;3.40;2.67;;;18.30;99.90;;;;;;5001081;28;20105;-74
2023/06/11 05:01:00;;;;;;;4.78;2.70;;;18.40;99.90;;;;;;5000877;28;20033;-75
2023/06/11 05:03:36;;;;;;;4.40;2.40;;;18.40;99.90;;;;;;5000980;28;20475;-75
2023/06/11 05:06:05;;;;;;;4.00;2.63;;;18.40;99.90;;;;;;4998207;28;20022;-74
2023/06/11 05:08:32;;;;;;;4.10;2.40;;;18.40;99.90;;;;;;5000886;28;20030;-74
2023/06/11 05:10:58;;;;;;;4.25;2.30;;;18.50;99.90;;;;;;5000618;28;20022;-75
2023/06/11 05:13:24;;;;;;;4.78;2.90;;;18.50;99.90;;;;;;4983390;28;20037;-74
2023/06/11 05:15:58;;;;;;;3.55;2.35;;;18.50;99.90;;;;;;5000462;28;20436;-75
2023/06/11 05:18:25;;;;;;;5.95;3.88;;;18.60;99.90;;;;;;5000664;28;20045;-75
2023/06/11 05:20:51;;;;;;;3.22;2.60;;;18.70;99.90;;;;;;4999105;28;20039;-74
2023/06/11 05:23:18;;;;;;;4.28;2.60;;;18.80;99.90;;;;;;4983113;28;20027;-74
2023/06/11 05:25:47;;;;;;;3.33;2.78;;;18.90;99.90;;;;;;5000591;28;20026;-75
2023/06/11 05:28:14;;;;;;;5.60;3.05;;;18.90;99.90;;;;;;5000446;28;20466;-75
2023/06/11 05:30:43;;;;;;;4.13;3.03;;;19.00;99.90;;;;;;5000590;28;20022;-75
2023/06/11 05:33:09;;;;;;;3.70;2.60;;;19.00;99.90;;;;;;5000479;28;20027;-75
2023/06/11 05:35:35;;;;;;;3.13;2.28;;;19.00;99.90;;;;;;5000197;28;20030;-75
2023/06/11 05:38:03;;;;;;;2.67;2.22;;;19.10;99.90;;;;;;5000212;28;20015;-76
2023/06/11 05:40:30;;;;;;;7.70;2.42;;;19.10;99.90;;;;;;5000139;28;20117;-75
2023/06/11 05:42:56;;;;;;;3.05;2.35;;;19.00;99.90;;;;;;5000122;28;20069;-75
2023/06/11 05:45:21;;;;;;;3.53;2.47;;;19.00;99.90;;;;;;5000450;28;20031;-75
2023/06/11 05:47:47;;;;;;;2.88;2.17;;;19.10;99.90;;;;;;4982558;28;20028;-75
2023/06/11 05:50:13;;;;;;;3.05;2.42;;;19.10;99.90;;;;;;4999928;28;20041;-75
2023/06/11 05:52:38;;;;;;;3.42;2.35;;;19.10;99.90;;;;;;5000063;28;20022;-75
2023/06/11 05:55:05;;;;;;;2.95;2.33;;;19.10;99.90;;;;;;4999760;28;20033;-75
2023/06/11 05:57:30;;;;;;;5.82;2.55;;;19.20;99.90;;;;;;5010803;28;20057;-75
2023/06/11 05:59:56;;;;;;;5.43;2.33;;;19.30;99.90;;;;;;5019566;28;20418;-75
2023/06/11 06:02:22;;;;;;;3.28;2.42;;;19.40;99.90;;;;;;5001138;28;20022;-74
2023/06/11 06:04:48;;;;;;;5.82;2.83;;;19.40;99.90;;;;;;5025620;28;20441;-74
2023/06/11 06:07:16;;;;;;;4.22;2.13;;;19.50;99.90;;;;;;5019437;28;20054;-75
2023/06/11 06:09:42;;;;;;;4.05;2.58;;;19.60;99.90;;;;;;5019303;28;20025;-74
2023/06/11 06:12:08;;;;;;;2.88;2.30;;;19.70;99.90;;;;;;5019241;28;20036;-74
2023/06/11 06:14:34;;;;;;;3.47;2.33;;;19.80;99.90;;;;;;5024673;28;20022;-75
2023/06/11 06:16:59;;;;;;;4.53;2.53;;;20.00;99.90;;;;;;5019200;28;20052;-74
2023/06/11 06:19:25;;;;;;;5.25;2.47;;;20.00;99.90;;;;;;5019054;28;20014;-74
2023/06/11 06:21:50;;;;;;;4.93;2.50;;;20.20;99.90;;;;;;5001263;28;20512;-74
2023/06/11 06:24:16;;;;;;;5.70;2.65;;;20.30;99.90;;;;;;4998185;28;20505;-75
2023/06/11 06:26:43;;;;;;;6.10;2.50;;;20.40;99.90;;;;;;5015416;28;20129;-75
2023/06/11 06:29:12;;;;;;;4.80;3.17;;;20.40;99.90;;;;;;5018748;28;20076;-74
2023/06/11 06:31:38;;;;;;;3.70;2.40;;;20.50;99.90;;;;;;5018869;28;20403;-74
2023/06/11 06:34:04;;;;;;;3.58;2.35;;;20.50;99.90;;;;;;5018498;28;20101;-77
2023/06/11 06:36:30;;;;;;;4.20;2.25;;;20.50;99.90;;;;;;5001094;28;20498;-74
2023/06/11 06:38:57;;;;;;;5.72;2.33;;;20.50;99.90;;;;;;5018802;28;20045;-72
2023/06/11 06:41:22;;;;;;;4.00;2.40;;;20.50;99.90;;;;;;5018666;28;20042;-73
2023/06/11 06:43:48;;;;;;;3.55;3.00;;;20.40;99.90;;;;;;5001164;28;20432;-73
2023/06/11 06:46:14;;;;;;;2.70;2.03;;;20.40;99.90;;;;;;5018649;28;20057;-72
2023/06/11 06:48:39;;;;;;;5.32;2.22;;;20.40;99.90;;;;;;5018411;28;20018;-73
2023/06/11 06:51:05;;;;;;;3.25;1.90;;;20.40;99.90;;;;;;5018732;28;20029;-72
2023/06/11 06:53:31;;;;;;;3.10;2.08;;;20.40;99.90;;;;;;5000626;28;20022;-73
2023/06/11 06:55:58;;;;;;;4.00;2.20;;;20.50;99.90;;;;;;5018232;28;20131;-72
2023/06/11 06:58:24;;;;;;;4.00;2.72;;;20.50;99.90;;;;;;4999488;28;20038;-72
2023/06/11 07:00:50;;;;;;;6.57;3.10;;;20.60;99.90;;;;;;4998790;28;20386;-73
2023/06/11 07:03:16;;;;;;;3.53;2.63;;;20.60;99.90;;;;;;5005939;28;20097;-73
2023/06/11 07:05:41;;;;;;;6.68;2.40;;;20.70;99.90;;;;;;5005575;28;20022;-73
2023/06/11 07:08:12;;;;;;;6.00;2.60;;;20.70;99.90;;;;;;4980732;28;20030;-72
2023/06/11 07:10:41;;;;;;;3.50;2.75;;;20.70;99.90;;;;;;4998438;28;20026;-72
2023/06/11 07:13:10;;;;;;;3.27;2.30;;;20.90;99.90;;;;;;4979862;28;20035;-71
2023/06/11 07:15:35;;;;;;;3.47;2.35;;;21.00;99.90;;;;;;4998084;28;20065;-72
2023/06/11 07:18:01;;;;;;;3.95;2.38;;;21.00;99.90;;;;;;4980938;28;20022;-72
2023/06/11 07:20:26;;;;;;;4.55;2.45;;;21.10;99.90;;;;;;4998394;28;20038;-72
2023/06/11 07:22:52;;;;;;;3.53;2.15;;;21.20;99.90;;;;;;4998306;28;20041;-73
2023/06/11 07:25:18;;;;;;;4.22;2.60;;;21.30;99.90;;;;;;4998451;28;20034;-72
2023/06/11 07:27:43;;;;;;;6.72;2.53;;;21.40;99.90;;;;;;4980483;28;20483;-72
2023/06/11 07:30:10;;;;;;;4.22;2.40;;;21.60;99.90;;;;;;4980632;28;20026;-73
2023/06/11 07:32:36;;;;;;;4.00;2.55;;;21.60;99.90;;;;;;4998243;28;20035;-72
2023/06/11 07:35:02;;;;;;;3.70;2.83;;;21.80;99.90;;;;;;4997701;28;20387;-72
2023/06/11 07:37:27;;;;;;;3.70;2.22;;;21.90;99.90;;;;;;4998103;28;20066;-73
2023/06/11 07:39:53;;;;;;;4.95;2.63;;;21.90;99.90;;;;;;4997929;28;20026;-73
2023/06/11 07:42:19;;;;;;;4.07;2.53;;;22.00;99.90;;;;;;4996934;28;20079;-72
2023/06/11 07:44:45;;;;;;;4.60;2.55;;;22.00;99.90;;;;;;4980384;28;20108;-71
2023/06/11 07:47:10;;;;;;;4.60;2.50;;;22.20;99.90;;;;;;4998164;28;20046;-72
2023/06/11 07:49:36;;;;;;;2.72;2.30;;;22.30;99.90;;;;;;4997416;28;20042;-71
2023/06/11 07:52:02;;;;;;;2.50;1.90;;;22.20;99.90;;;;;;4997764;28;20026;-72
2023/06/11 07:54:28;;;;;;;3.35;2.10;;;22.20;99.90;;;;;;4997723;28;20032;-72
2023/06/11 07:56:53;;;;;;;4.80;2.95;;;22.20;99.90;;;;;;4986271;28;20069;-71
2023/06/11 07:59:19;;;;;;;3.90;1.92;;;22.30;99.90;;;;;;5017208;28;20482;-71
2023/06/11 08:01:45;;;;;;;4.90;2.55;;;22.40;99.90;;;;;;5017138;28;20049;-73
2023/06/11 08:04:10;;;;;;;3.38;2.15;;;22.50;99.90;;;;;;4999145;28;20098;-73
2023/06/11 08:06:37;;;;;;;4.22;2.83;;;22.70;99.90;;;;;;4999603;28;20029;-74
2023/06/11 08:09:03;;;;;;;5.50;2.28;;;22.80;99.90;;;;;;4999488;28;20475;-74
2023/06/11 08:11:29;;;;;;;3.63;2.60;;;22.80;99.90;;;;;;4999373;28;20044;-74
2023/06/11 08:13:54;;;;;;;3.97;2.10;;;22.80;99.90;;;;;;5016934;28;20025;-74
2023/06/11 08:16:20;;;;;;;6.65;2.80;;;22.90;99.90;;;;;;5017141;28;20041;-74
2023/06/11 08:18:46;;;;;;;3.00;2.00;;;22.80;99.90;;;;;;5016767;28;20397;-74
2023/06/11 08:21:12;;;;;;;5.68;1.58;;;22.80;99.90;;;;;;5016897;28;20093;-73
2023/06/11 08:23:39;;;;;;;4.90;2.38;;;23.00;99.90;;;;;;5017104;28;20080;-73
2023/06/11 08:26:05;;;;;;;4.60;2.03;;;23.10;99.90;;;;;;5009299;28;20075;-74
2023/06/11 08:28:31;;;;;;;2.92;2.17;;;23.30;99.90;;;;;;4999316;28;20117;-74
2023/06/11 08:30:57;;;;;;;2.83;2.17;;;23.50;99.90;;;;;;5016850;28;20060;-73
2023/06/11 08:33:23;;;;;;;3.70;2.53;;;23.50;99.90;;;;;;5016727;28;20076;-74
2023/06/11 08:35:49;;;;;;;6.13;2.45;;;23.70;99.90;;;;;;5016828;28;20018;-74
2023/06/11 08:38:15;;;;;;;3.60;2.17;;;24.00;99.90;;;;;;5017038;28;20089;-74
2023/06/11 08:40:42;;;;;;;3.38;2.00;;;24.10;99.90;;;;;;5017044;28;20022;-74
2023/06/11 08:43:08;;;;;;;5.80;2.58;;;23.80;99.90;;;;;;5016910;28;20168;-74
2023/06/11 08:45:34;;;;;;;4.65;2.10;;;23.60;99.90;;;;;;5016694;28;20045;-73
2023/06/11 08:48:02;;;;;;;2.95;2.08;;;23.60;99.90;;;;;;5016973;28;20430;-74
2023/06/11 08:50:29;;;;;;;4.95;2.22;;;23.70;99.90;;;;;;5002667;28;20026;-74
2023/06/11 08:52:56;;;;;;;3.47;2.05;;;23.80;99.90;;;;;;5016792;28;20021;-74
2023/06/11 08:55:22;;;;;;;5.45;2.10;;;23.90;99.90;;;;;;4998859;28;20037;-74
2023/06/11 08:57:50;;;;;;;6.75;2.40;;;24.10;99.90;;;;;;5003097;28;20046;-73
2023/06/11 09:00:16;;;;;;;6.22;2.92;;;24.30;99.90;;;;;;4997005;28;20026;-74
2023/06/11 09:02:42;;;;;;;7.78;2.47;;;24.50;99.90;;;;;;4997135;28;20389;-73
2023/06/11 09:05:10;;;;;;;3.17;1.88;;;24.60;99.90;;;;;;4996835;28;20541;-73
2023/06/11 09:07:36;;;;;;;4.22;2.00;;;24.60;99.90;;;;;;4980002;28;20093;-74
2023/06/11 09:10:06;;;;;;;4.43;2.20;;;24.40;99.90;;;;;;4994889;28;20058;-72
2023/06/11 09:12:32;;;;;;;2.83;2.03;;;24.20;99.90;;;;;;4996954;28;20030;-73
2023/06/11 09:14:58;;;;;;;3.60;2.20;;;24.20;99.90;;;;;;4996565;28;20609;-74
2023/06/11 09:17:25;;;;;;;2.25;1.65;;;24.40;99.90;;;;;;4996779;28;20129;-74
2023/06/11 09:19:54;;;;;;;5.90;2.10;;;24.40;99.90;;;;;;4996387;28;20102;-74
2023/06/11 09:22:27;;;;;;;2.70;2.03;;;24.50;99.90;;;;;;4996808;28;20029;-74
2023/06/11 09:24:52;;;;;;;3.97;2.10;;;24.60;99.90;;;;;;4996269;28;20018;-74
2023/06/11 09:27:21;;;;;;;4.35;2.13;;;24.60;99.90;;;;;;4996705;28;20053;-76
2023/06/11 09:29:46;;;;;;;2.88;1.70;;;24.60;99.90;;;;;;4995415;28;20037;-75
2023/06/11 09:32:12;;;;;;;3.53;2.00;;;24.80;99.90;;;;;;4979406;28;20340;-74
2023/06/11 09:34:39;;;;;;;3.80;2.15;;;25.10;99.90;;;;;;4996322;28;20027;-74
2023/06/11 09:37:09;;;;;;;4.97;2.10;;;25.30;99.90;;;;;;5000149;28;20021;-74
2023/06/11 09:39:35;;;;;;;3.85;2.08;;;25.30;99.90;;;;;;4978972;28;20015;-75
2023/06/11 09:42:01;;;;;;;5.28;1.85;;;25.20;99.90;;;;;;4973092;28;20041;-73
2023/06/11 09:44:31;;;;;;;3.75;2.10;;;25.30;99.90;;;;;;4999993;28;20041;-73
2023/06/11 09:46:57;;;;;;;3.67;2.08;;;25.10;99.90;;;;;;5000483;28;20034;-74
2023/06/11 09:49:24;;;;;;;7.10;1.95;;;25.20;99.90;;;;;;4980995;28;20031;-74
2023/06/11 09:51:51;;;;;;;2.88;1.98;;;25.40;99.90;;;;;;5000510;28;20073;-74
2023/06/11 09:54:18;;;;;;;3.10;1.90;;;25.30;99.90;;;;;;4982263;28;20018;-74
2023/06/11 09:56:44;;;;;;;2.95;1.70;;;25.40;99.90;;;;;;4986840;28;20045;-74
2023/06/11 09:59:13;;;;;;;3.55;2.15;;;25.60;99.90;;;;;;5019345;28;20018;-74
2023/06/11 10:01:46;;;;;;;3.05;2.08;;;25.70;99.90;;;;;;5019729;28;20026;-74
2023/06/11 10:04:12;;;;;;;4.18;1.92;;;25.80;99.90;;;;;;5025030;28;20100;-74
2023/06/11 10:06:45;;;;;;;5.10;2.30;;;26.00;99.90;;;;;;5022175;28;20121;-74
2023/06/11 10:09:13;;;;;;;3.88;1.98;;;26.10;99.90;;;;;;5019485;28;20022;-74
2023/06/11 10:11:40;;;;;;;4.15;2.00;;;26.30;99.90;;;;;;5006875;28;20026;-74
2023/06/11 10:14:11;;;;;;;5.15;2.03;;;26.60;99.90;;;;;;5019262;28;20041;-74
2023/06/11 10:16:37;;;;;;;3.95;2.10;;;26.80;99.90;;;;;;5018872;28;20494;-74
2023/06/11 10:19:06;;;;;;;3.28;1.98;;;26.90;99.90;;;;;;5018699;28;20124;-74
2023/06/11 10:21:55;;;;;;;3.92;2.03;;;26.90;99.90;;;;;;5019016;28;20025;-74
2023/06/11 10:24:25;;;;;;;4.00;2.40;;;26.60;99.90;;;;;;5018653;28;20026;-74
2023/06/11 10:27:14;;;;;;;3.22;2.22;;;26.00;99.90;;;;;;5018915;28;20080;-73
2023/06/11 10:29:41;;;;;;;3.75;1.92;;;25.80;99.90;;;;;;5018781;28;20378;-74
2023/06/11 10:32:22;;;;;;;3.42;2.13;;;25.70;99.90;;;;;;5018975;28;20030;-73
2023/06/11 10:34:54;;;;;;;6.35;2.28;;;25.80;99.90;;;;;;5016984;28;20033;-75
2023/06/11 10:37:31;;;;;;;3.70;1.67;;;26.30;99.90;;;;;;5000961;28;20026;-74
2023/06/11 10:39:56;;;;;;;4.18;1.80;;;26.60;99.90;;;;;;4998135;28;20387;-74
2023/06/11 10:42:24;;;;;;;6.93;2.35;;;27.00;99.90;;;;;;4998016;28;20022;-73
2023/06/11 10:44:50;;;;;;;6.80;2.15;;;27.10;99.90;;;;;;5018648;28;20018;-73
2023/06/11 10:47:15;;;;;;;3.05;2.00;;;27.10;99.90;;;;;;5018449;28;20101;-74
2023/06/11 10:49:41;;;;;;;3.00;1.50;;;27.00;99.90;;;;;;5018213;28;20104;-73
2023/06/11 10:52:07;;;;;;;2.80;1.70;;;27.00;99.90;;;;;;5018351;28;20442;-74
2023/06/11 10:54:34;;;;;;;3.58;1.77;;;27.30;99.90;;;;;;5018378;28;20033;-74
2023/06/11 10:57:02;;;;;;;2.40;1.67;;;27.30;99.90;;;;;;5010764;28;20530;-73
2023/06/11 10:59:30;;;;;;;3.75;2.20;;;27.20;99.90;;;;;;4997528;28;20049;-73
2023/06/11 11:01:56;;;;;;;3.50;1.65;;;27.10;99.90;;;;;;4998828;28;20561;-73
2023/06/11 11:04:22;;;;;;;6.50;2.13;;;27.10;99.90;;;;;;5005806;28;20117;-74
2023/06/11 11:06:52;;;;;;;4.35;2.15;;;27.10;99.90;;;;;;5000495;28;20034;-74
2023/06/11 11:09:22;;;;;;;3.45;2.42;;;27.00;99.90;;;;;;4997410;28;20364;-73
2023/06/11 11:11:49;;;;;;;5.03;2.38;;;26.90;99.90;;;;;;4998348;28;20054;-73
2023/06/11 11:14:17;;;;;;;2.55;1.45;;;27.10;99.90;;;;;;4998633;28;20030;-73
2023/06/11 11:16:45;;;;;;;4.35;1.73;;;27.20;99.90;;;;;;4998455;28;20022;-73
2023/06/11 11:19:11;;;;;;;4.65;1.92;;;27.20;99.90;;;;;;4998281;28;20030;-74
2023/06/11 11:21:36;;;;;;;3.67;2.13;;;27.00;99.90;;;;;;4998223;28;20022;-73
2023/06/11 11:24:03;;;;;;;2.58;1.70;;;26.80;99.90;;;;;;4998432;28;20114;-74
2023/06/11 11:26:29;;;;;;;3.20;1.73;;;26.70;99.90;;;;;;4998265;28;20023;-73
2023/06/11 11:28:55;;;;;;;2.88;2.05;;;26.90;99.90;;;;;;4998334;28;20506;-73
2023/06/11 11:31:21;;;;;;;5.57;1.70;;;27.10;99.90;;;;;;4998004;28;20027;-74
2023/06/11 11:33:47;;;;;;;3.25;1.98;;;27.40;99.90;;;;;;4980694;28;20018;-73
2023/06/11 11:36:13;;;;;;;3.55;1.60;;;27.60;99.90;;;;;;4998024;28;20421;-73
2023/06/11 11:38:39;;;;;;;4.25;1.90;;;27.90;99.90;;;;;;4998236;28;20395;-74
2023/06/11 11:41:09;;;;;;;3.72;1.80;;;28.20;99.90;;;;;;4996518;28;20050;-72
2023/06/11 11:43:40;;;;;;;3.10;1.83;;;28.50;99.90;;;;;;4998147;28;20018;-72
2023/06/11 11:46:20;;;;;;;2.78;2.10;;;28.80;99.90;;;;;;4997911;28;20113;-71
2023/06/11 11:48:46;;;;;;;3.43;1.83;;;29.10;99.90;;;;;;4997758;28;20034;-71
2023/06/11 11:51:15;;;;;;;2.63;1.80;;;29.30;99.90;;;;;;4980164;28;20361;-72
2023/06/11 11:53:41;;;;;;;8.40;2.22;;;29.30;99.90;;;;;;4980375;28;20030;-72
2023/06/11 11:56:07;;;;;;;4.55;2.05;;;29.10;99.90;;;;;;4997126;28;20030;-72
2023/06/11 11:58:40;;;;;;;2.30;1.67;;;28.80;99.90;;;;;;4999716;28;20042;-72
2023/06/11 12:01:15;;;;;;;3.58;1.60;;;28.60;99.90;;;;;;5016633;28;20093;-72
2023/06/11 12:03:40;;;;;;;2.97;1.60;;;28.30;99.90;;;;;;5018881;28;20104;-72
2023/06/11 12:06:08;;;;;;;2.55;1.60;;;28.60;99.90;;;;;;5019712;28;20053;-72
2023/06/11 12:08:35;;;;;;;2.38;1.45;;;28.70;99.90;;;;;;4999533;28;20088;-72
2023/06/11 12:11:03;;;;;;;3.97;2.33;;;29.00;99.90;;;;;;5017045;28;20021;-72
2023/06/11 12:13:29;;;;;;;2.80;1.60;;;29.00;99.90;;;;;;4999205;28;20073;-72
2023/06/11 12:15:55;;;;;;;4.30;1.65;;;29.10;99.90;;;;;;5017313;28;20034;-72
2023/06/11 12:18:21;;;;;;;2.05;1.38;;;29.20;99.90;;;;;;5016787;28;20037;-72
2023/06/11 12:20:47;;;;;;;2.33;1.50;;;29.20;99.90;;;;;;4999409;28;20018;-71
2023/06/11 12:23:13;;;;;;;2.90;1.90;;;29.00;99.90;;;;;;5017004;28;20033;-72
2023/06/11 12:25:39;;;;;;;2.95;1.40;;;28.90;99.90;;;;;;4999287;28;20034;-71
2023/06/11 12:28:05;;;;;;;2.45;1.60;;;28.80;99.90;;;;;;4999281;28;20410;-72
2023/06/11 12:30:32;;;;;;;3.03;1.70;;;28.60;99.90;;;;;;5014556;28;20026;-72
2023/06/11 12:32:58;;;;;;;2.38;1.50;;;28.40;99.90;;;;;;5024833;28;20034;-72
2023/06/11 12:35:24;;;;;;;2.55;1.65;;;28.40;99.90;;;;;;5016873;28;20094;-72
2023/06/11 12:37:50;;;;;;;3.78;1.80;;;28.60;99.90;;;;;;5016546;28;20038;-72
2023/06/11 12:40:16;;;;;;;3.05;1.73;;;28.90;99.90;;;;;;5016635;28;20018;-72
2023/06/11 12:42:43;;;;;;;3.53;1.75;;;29.10;99.90;;;;;;5016673;28;20053;-72
2023/06/11 12:45:09;;;;;;;2.58;1.70;;;29.60;99.90;;;;;;4998952;28;20026;-72
2023/06/11 12:47:36;;;;;;;3.42;1.88;;;29.90;99.90;;;;;;5014790;28;20054;-72